sensor_id;sensor_type;location;lat;lon;timestamp;P1;durP1;ratioP1;P2;durP2;ratioP2
24439;SDS011;12618;54.386;18.394;2023-04-25T00:02:06;8.30;;;7.50;;
24439;SDS011;12618;54.386;18.394;2023-04-25T00:04:56;9.10;;;7.80;;
24439;SDS011;12618;54.386;18.394;2023-04-25T00:07:34;9.20;;;7.90;;
24439;SDS011;12618;54.386;18.394;2023-04-25T00:10:14;8.50;;;7.70;;
24439;SDS011;12618;54.386;18.394;2023-04-25T00:15:42;8.10;;;7.30;;
24439;SDS011;12618;54.386;18.394;2023-04-25T00:18:49;8.80;;;7.00;;
24439;SDS011;12618;54.386;18.394;2023-04-25T00:21:25;7.60;;;6.60;;
24439;SDS011;12618;54.386;18.394;2023-04-25T00:24:03;7.50;;;6.70;;
24439;SDS011;12618;54.386;18.394;2023-04-25T00:26:37;7.40;;;6.60;;
24439;SDS011;12618;54.386;18.394;2023-04-25T00:29:10;7.70;;;6.60;;
24439;SDS011;12618;54.386;18.394;2023-04-25T00:31:43;8.00;;;7.20;;
24439;SDS011;12618;54.386;18.394;2023-04-25T00:34:17;8.30;;;7.10;;
24439;SDS011;12618;54.386;18.394;2023-04-25T00:36:50;7.60;;;6.80;;
24439;SDS011;12618;54.386;18.394;2023-04-25T00:39:24;7.90;;;7.00;;
24439;SDS011;12618;54.386;18.394;2023-04-25T00:44:32;12.40;;;8.00;;
24439;SDS011;12618;54.386;18.394;2023-04-25T00:47:09;7.50;;;6.80;;
24439;SDS011;12618;54.386;18.394;2023-04-25T00:49:44;7.90;;;7.10;;
24439;SDS011;12618;54.386;18.394;2023-04-25T00:52:17;7.90;;;7.20;;
24439;SDS011;12618;54.386;18.394;2023-04-25T00:54:54;7.90;;;7.10;;
24439;SDS011;12618;54.386;18.394;2023-04-25T00:57:28;7.90;;;7.10;;
24439;SDS011;12618;54.386;18.394;2023-04-25T01:00:01;8.00;;;7.20;;
24439;SDS011;12618;54.386;18.394;2023-04-25T01:02:38;8.20;;;7.20;;
24439;SDS011;12618;54.386;18.394;2023-04-25T01:05:12;7.80;;;7.00;;
24439;SDS011;12618;54.386;18.394;2023-04-25T01:07:45;8.50;;;7.10;;
24439;SDS011;12618;54.386;18.394;2023-04-25T01:10:25;7.70;;;7.00;;
24439;SDS011;12618;54.386;18.394;2023-04-25T01:13:26;9.00;;;7.50;;
24439;SDS011;12618;54.386;18.394;2023-04-25T01:16:07;8.10;;;7.30;;
24439;SDS011;12618;54.386;18.394;2023-04-25T01:18:58;9.70;;;8.20;;
24439;SDS011;12618;54.386;18.394;2023-04-25T01:21:31;8.80;;;7.90;;
24439;SDS011;12618;54.386;18.394;2023-04-25T01:24:05;8.40;;;7.60;;
24439;SDS011;12618;54.386;18.394;2023-04-25T01:26:40;9.90;;;8.50;;
24439;SDS011;12618;54.386;18.394;2023-04-25T01:29:32;10.70;;;8.60;;
24439;SDS011;12618;54.386;18.394;2023-04-25T01:32:07;9.60;;;8.60;;
24439;SDS011;12618;54.386;18.394;2023-04-25T01:34:41;9.70;;;8.70;;
24439;SDS011;12618;54.386;18.394;2023-04-25T01:37:20;11.80;;;9.20;;
24439;SDS011;12618;54.386;18.394;2023-04-25T01:40:03;11.80;;;9.40;;
24439;SDS011;12618;54.386;18.394;2023-04-25T01:42:38;10.50;;;9.40;;
24439;SDS011;12618;54.386;18.394;2023-04-25T01:45:14;11.30;;;9.60;;
24439;SDS011;12618;54.386;18.394;2023-04-25T01:47:51;10.70;;;9.60;;
24439;SDS011;12618;54.386;18.394;2023-04-25T01:50:25;10.90;;;9.80;;
24439;SDS011;12618;54.386;18.394;2023-04-25T01:53:02;10.50;;;9.50;;
24439;SDS011;12618;54.386;18.394;2023-04-25T01:55:49;10.60;;;9.50;;
24439;SDS011;12618;54.386;18.394;2023-04-25T02:01:34;10.60;;;9.10;;
24439;SDS011;12618;54.386;18.394;2023-04-25T02:04:08;10.80;;;9.80;;
24439;SDS011;12618;54.386;18.394;2023-04-25T02:06:46;10.50;;;9.20;;
24439;SDS011;12618;54.386;18.394;2023-04-25T02:09:23;10.20;;;9.20;;
24439;SDS011;12618;54.386;18.394;2023-04-25T02:11:57;11.30;;;10.10;;
24439;SDS011;12618;54.386;18.394;2023-04-25T02:17:02;9.60;;;8.60;;
24439;SDS011;12618;54.386;18.394;2023-04-25T02:19:38;10.10;;;9.00;;
24439;SDS011;12618;54.386;18.394;2023-04-25T02:22:11;9.60;;;8.10;;
24439;SDS011;12618;54.386;18.394;2023-04-25T02:24:45;10.00;;;8.50;;
24439;SDS011;12618;54.386;18.394;2023-04-25T02:27:19;9.30;;;8.40;;
24439;SDS011;12618;54.386;18.394;2023-04-25T02:29:52;9.60;;;8.60;;
24439;SDS011;12618;54.386;18.394;2023-04-25T02:32:26;10.00;;;8.60;;
24439;SDS011;12618;54.386;18.394;2023-04-25T02:35:00;9.00;;;8.10;;
24439;SDS011;12618;54.386;18.394;2023-04-25T02:37:36;9.80;;;8.80;;
24439;SDS011;12618;54.386;18.394;2023-04-25T02:40:11;9.60;;;8.60;;
24439;SDS011;12618;54.386;18.394;2023-04-25T02:42:45;9.40;;;8.50;;
24439;SDS011;12618;54.386;18.394;2023-04-25T02:45:19;9.70;;;8.70;;
24439;SDS011;12618;54.386;18.394;2023-04-25T02:47:53;9.40;;;8.50;;
24439;SDS011;12618;54.386;18.394;2023-04-25T02:50:26;9.20;;;8.40;;
24439;SDS011;12618;54.386;18.394;2023-04-25T02:52:59;9.90;;;8.90;;
24439;SDS011;12618;54.386;18.394;2023-04-25T02:55:33;9.80;;;8.80;;
24439;SDS011;12618;54.386;18.394;2023-04-25T03:00:40;9.00;;;8.10;;
24439;SDS011;12618;54.386;18.394;2023-04-25T03:05:50;10.30;;;9.30;;
24439;SDS011;12618;54.386;18.394;2023-04-25T03:08:24;10.40;;;9.40;;
24439;SDS011;12618;54.386;18.394;2023-04-25T03:11:04;10.00;;;9.10;;
24439;SDS011;12618;54.386;18.394;2023-04-25T03:13:38;10.10;;;9.10;;
24439;SDS011;12618;54.386;18.394;2023-04-25T03:16:11;10.70;;;9.60;;
24439;SDS011;12618;54.386;18.394;2023-04-25T03:18:44;10.90;;;9.80;;
24439;SDS011;12618;54.386;18.394;2023-04-25T03:21:17;10.30;;;9.30;;
24439;SDS011;12618;54.386;18.394;2023-04-25T03:23:50;10.40;;;9.40;;
24439;SDS011;12618;54.386;18.394;2023-04-25T03:28:57;9.40;;;8.20;;
24439;SDS011;12618;54.386;18.394;2023-04-25T03:31:31;10.50;;;8.10;;
24439;SDS011;12618;54.386;18.394;2023-04-25T03:34:04;9.00;;;7.30;;
24439;SDS011;12618;54.386;18.394;2023-04-25T03:36:36;8.30;;;7.50;;
24439;SDS011;12618;54.386;18.394;2023-04-25T03:39:15;9.30;;;7.60;;
24439;SDS011;12618;54.386;18.394;2023-04-25T03:41:48;8.40;;;7.40;;
24439;SDS011;12618;54.386;18.394;2023-04-25T03:44:21;8.00;;;7.20;;
24439;SDS011;12618;54.386;18.394;2023-04-25T03:46:57;8.30;;;7.50;;
24439;SDS011;12618;54.386;18.394;2023-04-25T03:49:30;9.90;;;8.00;;
24439;SDS011;12618;54.386;18.394;2023-04-25T03:52:05;8.50;;;7.60;;
24439;SDS011;12618;54.386;18.394;2023-04-25T03:54:39;8.80;;;7.90;;
24439;SDS011;12618;54.386;18.394;2023-04-25T03:57:15;9.40;;;8.40;;
24439;SDS011;12618;54.386;18.394;2023-04-25T04:02:34;9.10;;;8.20;;
24439;SDS011;12618;54.386;18.394;2023-04-25T04:05:09;9.00;;;7.90;;
24439;SDS011;12618;54.386;18.394;2023-04-25T04:07:42;9.40;;;8.50;;
24439;SDS011;12618;54.386;18.394;2023-04-25T04:10:16;9.90;;;8.40;;
24439;SDS011;12618;54.386;18.394;2023-04-25T04:12:48;10.60;;;8.60;;
24439;SDS011;12618;54.386;18.394;2023-04-25T04:15:22;9.20;;;8.10;;
24439;SDS011;12618;54.386;18.394;2023-04-25T04:17:56;10.00;;;8.20;;
24439;SDS011;12618;54.386;18.394;2023-04-25T04:20:35;11.30;;;8.50;;
24439;SDS011;12618;54.386;18.394;2023-04-25T04:25:42;10.10;;;8.40;;
24439;SDS011;12618;54.386;18.394;2023-04-25T04:28:15;10.30;;;9.20;;
24439;SDS011;12618;54.386;18.394;2023-04-25T04:30:51;9.80;;;8.80;;
24439;SDS011;12618;54.386;18.394;2023-04-25T04:33:24;10.30;;;9.00;;
24439;SDS011;12618;54.386;18.394;2023-04-25T04:35:57;9.30;;;8.30;;
24439;SDS011;12618;54.386;18.394;2023-04-25T04:38:31;10.30;;;8.90;;
24439;SDS011;12618;54.386;18.394;2023-04-25T04:41:11;9.20;;;8.10;;
24439;SDS011;12618;54.386;18.394;2023-04-25T04:43:44;9.70;;;8.70;;
24439;SDS011;12618;54.386;18.394;2023-04-25T04:46:18;12.00;;;9.10;;
24439;SDS011;12618;54.386;18.394;2023-04-25T04:51:32;11.30;;;8.90;;
24439;SDS011;12618;54.386;18.394;2023-04-25T04:54:12;9.80;;;8.60;;
24439;SDS011;12618;54.386;18.394;2023-04-25T04:56:53;14.90;;;9.80;;
24439;SDS011;12618;54.386;18.394;2023-04-25T04:59:26;12.10;;;9.10;;
24439;SDS011;12618;54.386;18.394;2023-04-25T05:01:58;10.90;;;9.00;;
24439;SDS011;12618;54.386;18.394;2023-04-25T05:04:31;10.80;;;8.80;;
24439;SDS011;12618;54.386;18.394;2023-04-25T05:07:04;16.60;;;8.60;;
24439;SDS011;12618;54.386;18.394;2023-04-25T05:09:41;12.80;;;8.80;;
24439;SDS011;12618;54.386;18.394;2023-04-25T05:12:15;12.10;;;8.80;;
24439;SDS011;12618;54.386;18.394;2023-04-25T05:14:48;19.00;;;9.30;;
24439;SDS011;12618;54.386;18.394;2023-04-25T05:17:20;17.70;;;9.90;;
24439;SDS011;12618;54.386;18.394;2023-04-25T05:19:55;11.10;;;7.60;;
24439;SDS011;12618;54.386;18.394;2023-04-25T05:22:35;13.70;;;8.20;;
24439;SDS011;12618;54.386;18.394;2023-04-25T05:25:09;11.00;;;8.10;;
24439;SDS011;12618;54.386;18.394;2023-04-25T05:27:43;12.60;;;8.00;;
24439;SDS011;12618;54.386;18.394;2023-04-25T05:30:15;8.50;;;6.80;;
24439;SDS011;12618;54.386;18.394;2023-04-25T05:32:53;16.10;;;7.60;;
24439;SDS011;12618;54.386;18.394;2023-04-25T05:38:05;11.60;;;7.50;;
24439;SDS011;12618;54.386;18.394;2023-04-25T05:40:38;11.90;;;7.10;;
24439;SDS011;12618;54.386;18.394;2023-04-25T05:43:11;11.20;;;7.00;;
24439;SDS011;12618;54.386;18.394;2023-04-25T05:45:49;10.20;;;6.80;;
24439;SDS011;12618;54.386;18.394;2023-04-25T05:48:23;8.40;;;6.00;;
24439;SDS011;12618;54.386;18.394;2023-04-25T05:50:56;9.50;;;6.20;;
24439;SDS011;12618;54.386;18.394;2023-04-25T05:53:30;14.90;;;6.80;;
24439;SDS011;12618;54.386;18.394;2023-04-25T05:56:03;9.70;;;6.40;;
24439;SDS011;12618;54.386;18.394;2023-04-25T05:58:36;10.60;;;6.20;;
24439;SDS011;12618;54.386;18.394;2023-04-25T06:01:13;8.00;;;6.30;;
24439;SDS011;12618;54.386;18.394;2023-04-25T06:03:50;8.90;;;6.10;;
24439;SDS011;12618;54.386;18.394;2023-04-25T06:06:32;10.20;;;7.10;;
24439;SDS011;12618;54.386;18.394;2023-04-25T06:11:39;12.30;;;6.80;;
24439;SDS011;12618;54.386;18.394;2023-04-25T06:14:15;12.60;;;6.60;;
24439;SDS011;12618;54.386;18.394;2023-04-25T06:16:50;11.30;;;7.00;;
24439;SDS011;12618;54.386;18.394;2023-04-25T06:19:24;10.40;;;6.50;;
24439;SDS011;12618;54.386;18.394;2023-04-25T06:21:57;9.90;;;6.70;;
24439;SDS011;12618;54.386;18.394;2023-04-25T06:24:31;12.00;;;7.40;;
24439;SDS011;12618;54.386;18.394;2023-04-25T06:27:04;11.30;;;6.80;;
24439;SDS011;12618;54.386;18.394;2023-04-25T06:29:38;14.40;;;7.20;;
24439;SDS011;12618;54.386;18.394;2023-04-25T06:32:11;9.90;;;7.30;;
24439;SDS011;12618;54.386;18.394;2023-04-25T06:34:44;10.50;;;7.60;;
24439;SDS011;12618;54.386;18.394;2023-04-25T06:37:18;9.30;;;7.50;;
24439;SDS011;12618;54.386;18.394;2023-04-25T06:39:51;13.00;;;8.90;;
24439;SDS011;12618;54.386;18.394;2023-04-25T06:42:28;11.00;;;7.50;;
24439;SDS011;12618;54.386;18.394;2023-04-25T06:45:01;9.70;;;7.40;;
24439;SDS011;12618;54.386;18.394;2023-04-25T06:47:36;7.20;;;6.20;;
24439;SDS011;12618;54.386;18.394;2023-04-25T06:50:09;7.90;;;5.80;;
24439;SDS011;12618;54.386;18.394;2023-04-25T06:55:16;8.90;;;6.40;;
24439;SDS011;12618;54.386;18.394;2023-04-25T06:57:49;9.50;;;5.80;;
24439;SDS011;12618;54.386;18.394;2023-04-25T07:00:23;6.50;;;5.80;;
24439;SDS011;12618;54.386;18.394;2023-04-25T07:02:56;8.30;;;5.40;;
24439;SDS011;12618;54.386;18.394;2023-04-25T07:05:30;6.20;;;5.30;;
24439;SDS011;12618;54.386;18.394;2023-04-25T07:08:04;9.60;;;5.70;;
24439;SDS011;12618;54.386;18.394;2023-04-25T07:10:38;8.80;;;4.40;;
24439;SDS011;12618;54.386;18.394;2023-04-25T07:13:12;6.10;;;4.00;;
24439;SDS011;12618;54.386;18.394;2023-04-25T07:15:45;4.80;;;4.30;;
24439;SDS011;12618;54.386;18.394;2023-04-25T07:18:20;6.60;;;3.80;;
24439;SDS011;12618;54.386;18.394;2023-04-25T07:20:53;8.30;;;3.30;;
24439;SDS011;12618;54.386;18.394;2023-04-25T07:23:27;3.40;;;2.70;;
24439;SDS011;12618;54.386;18.394;2023-04-25T07:26:00;8.20;;;3.20;;
24439;SDS011;12618;54.386;18.394;2023-04-25T07:28:33;6.40;;;2.70;;
24439;SDS011;12618;54.386;18.394;2023-04-25T07:31:10;3.20;;;2.90;;
24439;SDS011;12618;54.386;18.394;2023-04-25T07:33:42;3.10;;;2.60;;
24439;SDS011;12618;54.386;18.394;2023-04-25T07:36:18;4.40;;;2.40;;
24439;SDS011;12618;54.386;18.394;2023-04-25T07:39:00;4.60;;;2.60;;
24439;SDS011;12618;54.386;18.394;2023-04-25T07:41:48;3.00;;;2.70;;
24439;SDS011;12618;54.386;18.394;2023-04-25T07:44:24;6.80;;;2.80;;
24439;SDS011;12618;54.386;18.394;2023-04-25T07:49:40;3.80;;;2.40;;
24439;SDS011;12618;54.386;18.394;2023-04-25T07:52:18;3.40;;;2.20;;
24439;SDS011;12618;54.386;18.394;2023-04-25T07:54:54;3.50;;;2.30;;
24439;SDS011;12618;54.386;18.394;2023-04-25T07:57:27;2.50;;;2.10;;
24439;SDS011;12618;54.386;18.394;2023-04-25T08:00:05;3.50;;;2.10;;
24439;SDS011;12618;54.386;18.394;2023-04-25T08:02:44;3.80;;;2.20;;
24439;SDS011;12618;54.386;18.394;2023-04-25T08:05:18;3.00;;;2.30;;
24439;SDS011;12618;54.386;18.394;2023-04-25T08:07:53;3.40;;;2.30;;
24439;SDS011;12618;54.386;18.394;2023-04-25T08:10:28;3.60;;;2.20;;
24439;SDS011;12618;54.386;18.394;2023-04-25T08:13:01;2.80;;;2.30;;
24439;SDS011;12618;54.386;18.394;2023-04-25T08:15:35;2.90;;;2.20;;
24439;SDS011;12618;54.386;18.394;2023-04-25T08:18:08;2.60;;;2.40;;
24439;SDS011;12618;54.386;18.394;2023-04-25T08:20:41;3.10;;;2.80;;
24439;SDS011;12618;54.386;18.394;2023-04-25T08:23:14;3.10;;;2.20;;
24439;SDS011;12618;54.386;18.394;2023-04-25T08:25:47;3.80;;;2.50;;
24439;SDS011;12618;54.386;18.394;2023-04-25T08:28:20;2.80;;;2.30;;
24439;SDS011;12618;54.386;18.394;2023-04-25T08:30:54;5.80;;;2.70;;
24439;SDS011;12618;54.386;18.394;2023-04-25T08:33:27;3.80;;;2.50;;
24439;SDS011;12618;54.386;18.394;2023-04-25T08:36:01;4.00;;;2.80;;
24439;SDS011;12618;54.386;18.394;2023-04-25T08:38:34;4.90;;;2.30;;
24439;SDS011;12618;54.386;18.394;2023-04-25T08:41:09;2.60;;;2.40;;
24439;SDS011;12618;54.386;18.394;2023-04-25T08:43:50;2.50;;;2.30;;
24439;SDS011;12618;54.386;18.394;2023-04-25T08:46:42;4.20;;;2.40;;
24439;SDS011;12618;54.386;18.394;2023-04-25T08:49:22;3.80;;;2.70;;
24439;SDS011;12618;54.386;18.394;2023-04-25T08:51:59;4.10;;;2.70;;
24439;SDS011;12618;54.386;18.394;2023-04-25T08:54:38;3.20;;;2.80;;
24439;SDS011;12618;54.386;18.394;2023-04-25T08:57:18;5.00;;;2.70;;
24439;SDS011;12618;54.386;18.394;2023-04-25T08:59:57;4.50;;;2.70;;
24439;SDS011;12618;54.386;18.394;2023-04-25T09:02:46;4.90;;;3.10;;
24439;SDS011;12618;54.386;18.394;2023-04-25T09:05:20;4.20;;;3.50;;
24439;SDS011;12618;54.386;18.394;2023-04-25T09:07:55;4.40;;;3.10;;
24439;SDS011;12618;54.386;18.394;2023-04-25T09:13:03;7.00;;;3.00;;
24439;SDS011;12618;54.386;18.394;2023-04-25T09:15:49;4.90;;;3.10;;
24439;SDS011;12618;54.386;18.394;2023-04-25T09:18:30;3.40;;;3.10;;
24439;SDS011;12618;54.386;18.394;2023-04-25T09:21:05;3.30;;;2.80;;
24439;SDS011;12618;54.386;18.394;2023-04-25T09:23:48;3.60;;;3.30;;
24439;SDS011;12618;54.386;18.394;2023-04-25T09:26:24;3.70;;;3.40;;
24439;SDS011;12618;54.386;18.394;2023-04-25T09:29:04;4.10;;;2.90;;
24439;SDS011;12618;54.386;18.394;2023-04-25T09:31:41;4.80;;;2.80;;
24439;SDS011;12618;54.386;18.394;2023-04-25T09:34:14;3.30;;;2.70;;
24439;SDS011;12618;54.386;18.394;2023-04-25T09:36:49;2.90;;;2.50;;
24439;SDS011;12618;54.386;18.394;2023-04-25T09:41:59;2.50;;;2.20;;
24439;SDS011;12618;54.386;18.394;2023-04-25T09:44:32;2.60;;;2.40;;
24439;SDS011;12618;54.386;18.394;2023-04-25T09:47:08;3.00;;;2.20;;
24439;SDS011;12618;54.386;18.394;2023-04-25T09:49:43;3.10;;;2.70;;
24439;SDS011;12618;54.386;18.394;2023-04-25T09:52:18;3.20;;;2.40;;
24439;SDS011;12618;54.386;18.394;2023-04-25T09:54:55;2.90;;;2.00;;
24439;SDS011;12618;54.386;18.394;2023-04-25T09:57:28;2.70;;;2.30;;
24439;SDS011;12618;54.386;18.394;2023-04-25T10:00:01;3.40;;;2.40;;
24439;SDS011;12618;54.386;18.394;2023-04-25T10:02:43;2.40;;;2.20;;
24439;SDS011;12618;54.386;18.394;2023-04-25T10:05:22;2.90;;;2.10;;
24439;SDS011;12618;54.386;18.394;2023-04-25T10:07:58;3.30;;;2.00;;
24439;SDS011;12618;54.386;18.394;2023-04-25T10:10:36;2.70;;;2.20;;
24439;SDS011;12618;54.386;18.394;2023-04-25T10:13:13;3.30;;;2.60;;
24439;SDS011;12618;54.386;18.394;2023-04-25T10:15:50;5.70;;;3.30;;
24439;SDS011;12618;54.386;18.394;2023-04-25T10:18:31;3.30;;;2.80;;
24439;SDS011;12618;54.386;18.394;2023-04-25T10:21:08;2.60;;;2.40;;
24439;SDS011;12618;54.386;18.394;2023-04-25T10:23:43;4.00;;;3.10;;
24439;SDS011;12618;54.386;18.394;2023-04-25T10:26:22;5.20;;;3.20;;
24439;SDS011;12618;54.386;18.394;2023-04-25T10:28:57;2.70;;;2.50;;
24439;SDS011;12618;54.386;18.394;2023-04-25T10:31:32;4.30;;;2.80;;
24439;SDS011;12618;54.386;18.394;2023-04-25T10:34:05;3.60;;;2.70;;
24439;SDS011;12618;54.386;18.394;2023-04-25T10:36:39;3.20;;;2.90;;
24439;SDS011;12618;54.386;18.394;2023-04-25T10:39:12;3.30;;;2.10;;
24439;SDS011;12618;54.386;18.394;2023-04-25T10:41:54;2.80;;;2.40;;
24439;SDS011;12618;54.386;18.394;2023-04-25T10:44:35;3.00;;;2.70;;
24439;SDS011;12618;54.386;18.394;2023-04-25T10:47:11;5.00;;;3.60;;
24439;SDS011;12618;54.386;18.394;2023-04-25T10:49:45;5.40;;;3.70;;
24439;SDS011;12618;54.386;18.394;2023-04-25T10:52:26;4.60;;;3.20;;
24439;SDS011;12618;54.386;18.394;2023-04-25T10:55:02;6.00;;;3.40;;
24439;SDS011;12618;54.386;18.394;2023-04-25T10:57:40;3.70;;;2.80;;
24439;SDS011;12618;54.386;18.394;2023-04-25T11:00:18;6.80;;;3.30;;
24439;SDS011;12618;54.386;18.394;2023-04-25T11:03:01;4.50;;;3.10;;
24439;SDS011;12618;54.386;18.394;2023-04-25T11:05:35;3.10;;;2.80;;
24439;SDS011;12618;54.386;18.394;2023-04-25T11:08:42;4.00;;;2.90;;
24439;SDS011;12618;54.386;18.394;2023-04-25T11:11:22;4.90;;;3.10;;
24439;SDS011;12618;54.386;18.394;2023-04-25T11:13:58;4.20;;;2.90;;
24439;SDS011;12618;54.386;18.394;2023-04-25T11:16:32;3.40;;;2.80;;
24439;SDS011;12618;54.386;18.394;2023-04-25T11:19:05;4.10;;;3.10;;
24439;SDS011;12618;54.386;18.394;2023-04-25T11:21:37;4.30;;;2.80;;
24439;SDS011;12618;54.386;18.394;2023-04-25T11:24:10;6.40;;;2.70;;
24439;SDS011;12618;54.386;18.394;2023-04-25T11:29:32;6.60;;;3.10;;
24439;SDS011;12618;54.386;18.394;2023-04-25T11:32:08;8.10;;;2.40;;
24439;SDS011;12618;54.386;18.394;2023-04-25T11:34:42;5.60;;;2.70;;
24439;SDS011;12618;54.386;18.394;2023-04-25T11:37:18;5.60;;;3.10;;
24439;SDS011;12618;54.386;18.394;2023-04-25T11:40:02;5.70;;;2.90;;
24439;SDS011;12618;54.386;18.394;2023-04-25T11:42:46;4.10;;;3.00;;
24439;SDS011;12618;54.386;18.394;2023-04-25T11:45:20;8.10;;;4.00;;
24439;SDS011;12618;54.386;18.394;2023-04-25T11:47:56;7.80;;;3.40;;
24439;SDS011;12618;54.386;18.394;2023-04-25T11:50:29;5.60;;;3.50;;
24439;SDS011;12618;54.386;18.394;2023-04-25T11:53:02;7.60;;;3.90;;
24439;SDS011;12618;54.386;18.394;2023-04-25T11:55:35;5.40;;;3.40;;
24439;SDS011;12618;54.386;18.394;2023-04-25T11:58:09;7.00;;;4.20;;
24439;SDS011;12618;54.386;18.394;2023-04-25T12:00:45;8.40;;;3.70;;
24439;SDS011;12618;54.386;18.394;2023-04-25T12:03:21;4.90;;;3.10;;
24439;SDS011;12618;54.386;18.394;2023-04-25T12:06:04;11.80;;;4.10;;
24439;SDS011;12618;54.386;18.394;2023-04-25T12:08:58;5.30;;;3.40;;
24439;SDS011;12618;54.386;18.394;2023-04-25T12:11:40;7.60;;;4.20;;
24439;SDS011;12618;54.386;18.394;2023-04-25T12:14:51;14.60;;;4.60;;
24439;SDS011;12618;54.386;18.394;2023-04-25T12:17:24;6.10;;;4.30;;
24439;SDS011;12618;54.386;18.394;2023-04-25T12:20:05;6.70;;;3.60;;
24439;SDS011;12618;54.386;18.394;2023-04-25T12:22:47;9.30;;;3.70;;
24439;SDS011;12618;54.386;18.394;2023-04-25T12:25:44;5.80;;;3.80;;
24439;SDS011;12618;54.386;18.394;2023-04-25T12:28:33;5.50;;;3.90;;
24439;SDS011;12618;54.386;18.394;2023-04-25T12:31:14;5.60;;;4.00;;
24439;SDS011;12618;54.386;18.394;2023-04-25T12:36:24;8.00;;;4.10;;
24439;SDS011;12618;54.386;18.394;2023-04-25T12:38:58;7.50;;;4.20;;
24439;SDS011;12618;54.386;18.394;2023-04-25T12:41:36;7.50;;;4.40;;
24439;SDS011;12618;54.386;18.394;2023-04-25T12:44:10;8.20;;;4.70;;
24439;SDS011;12618;54.386;18.394;2023-04-25T12:46:43;6.70;;;4.00;;
24439;SDS011;12618;54.386;18.394;2023-04-25T12:49:19;6.60;;;3.70;;
24439;SDS011;12618;54.386;18.394;2023-04-25T12:51:53;6.90;;;4.00;;
24439;SDS011;12618;54.386;18.394;2023-04-25T12:54:26;9.30;;;4.00;;
24439;SDS011;12618;54.386;18.394;2023-04-25T12:57:00;6.90;;;4.60;;
24439;SDS011;12618;54.386;18.394;2023-04-25T12:59:35;8.40;;;4.30;;
24439;SDS011;12618;54.386;18.394;2023-04-25T13:02:14;8.40;;;3.70;;
24439;SDS011;12618;54.386;18.394;2023-04-25T13:04:51;6.50;;;4.10;;
24439;SDS011;12618;54.386;18.394;2023-04-25T13:07:24;7.00;;;3.30;;
24439;SDS011;12618;54.386;18.394;2023-04-25T13:09:58;5.80;;;3.20;;
24439;SDS011;12618;54.386;18.394;2023-04-25T13:12:32;5.20;;;3.10;;
24439;SDS011;12618;54.386;18.394;2023-04-25T13:15:06;4.70;;;3.10;;
24439;SDS011;12618;54.386;18.394;2023-04-25T13:17:50;7.30;;;3.10;;
24439;SDS011;12618;54.386;18.394;2023-04-25T13:20:24;7.50;;;3.80;;
24439;SDS011;12618;54.386;18.394;2023-04-25T13:22:57;6.50;;;3.20;;
24439;SDS011;12618;54.386;18.394;2023-04-25T13:25:32;5.60;;;2.90;;
24439;SDS011;12618;54.386;18.394;2023-04-25T13:28:06;5.60;;;3.50;;
24439;SDS011;12618;54.386;18.394;2023-04-25T13:30:39;9.00;;;3.50;;
24439;SDS011;12618;54.386;18.394;2023-04-25T13:33:16;6.90;;;3.20;;
24439;SDS011;12618;54.386;18.394;2023-04-25T13:38:31;6.50;;;3.30;;
24439;SDS011;12618;54.386;18.394;2023-04-25T13:41:08;4.60;;;3.20;;
24439;SDS011;12618;54.386;18.394;2023-04-25T13:43:46;4.00;;;2.80;;
24439;SDS011;12618;54.386;18.394;2023-04-25T13:46:20;8.10;;;3.30;;
24439;SDS011;12618;54.386;18.394;2023-04-25T13:48:56;5.30;;;3.20;;
24439;SDS011;12618;54.386;18.394;2023-04-25T13:51:42;5.10;;;3.00;;
24439;SDS011;12618;54.386;18.394;2023-04-25T13:54:15;5.10;;;3.30;;
24439;SDS011;12618;54.386;18.394;2023-04-25T13:56:53;5.60;;;3.40;;
24439;SDS011;12618;54.386;18.394;2023-04-25T13:59:31;6.20;;;3.20;;
24439;SDS011;12618;54.386;18.394;2023-04-25T14:02:04;6.00;;;3.50;;
24439;SDS011;12618;54.386;18.394;2023-04-25T14:04:38;7.40;;;3.30;;
24439;SDS011;12618;54.386;18.394;2023-04-25T14:07:13;10.20;;;3.90;;
24439;SDS011;12618;54.386;18.394;2023-04-25T14:09:51;10.80;;;3.80;;
24439;SDS011;12618;54.386;18.394;2023-04-25T14:12:26;10.60;;;4.00;;
24439;SDS011;12618;54.386;18.394;2023-04-25T14:14:59;8.00;;;3.80;;
24439;SDS011;12618;54.386;18.394;2023-04-25T14:17:33;9.70;;;4.00;;
24439;SDS011;12618;54.386;18.394;2023-04-25T14:20:06;7.10;;;3.40;;
24439;SDS011;12618;54.386;18.394;2023-04-25T14:22:40;9.30;;;4.40;;
24439;SDS011;12618;54.386;18.394;2023-04-25T14:25:18;11.90;;;6.00;;
24439;SDS011;12618;54.386;18.394;2023-04-25T14:27:54;10.70;;;4.40;;
24439;SDS011;12618;54.386;18.394;2023-04-25T14:30:27;11.70;;;5.90;;
24439;SDS011;12618;54.386;18.394;2023-04-25T14:33:00;9.60;;;4.60;;
24439;SDS011;12618;54.386;18.394;2023-04-25T14:35:37;12.10;;;4.00;;
24439;SDS011;12618;54.386;18.394;2023-04-25T14:38:11;16.10;;;8.40;;
24439;SDS011;12618;54.386;18.394;2023-04-25T14:40:55;10.40;;;4.40;;
24439;SDS011;12618;54.386;18.394;2023-04-25T14:43:28;14.70;;;5.00;;
24439;SDS011;12618;54.386;18.394;2023-04-25T14:46:01;11.10;;;5.30;;
24439;SDS011;12618;54.386;18.394;2023-04-25T14:48:34;12.50;;;4.60;;
24439;SDS011;12618;54.386;18.394;2023-04-25T14:51:08;13.30;;;4.70;;
24439;SDS011;12618;54.386;18.394;2023-04-25T14:53:41;11.70;;;4.30;;
24439;SDS011;12618;54.386;18.394;2023-04-25T14:56:14;13.90;;;4.40;;
24439;SDS011;12618;54.386;18.394;2023-04-25T14:58:47;13.30;;;4.30;;
24439;SDS011;12618;54.386;18.394;2023-04-25T15:01:21;12.30;;;4.10;;
24439;SDS011;12618;54.386;18.394;2023-04-25T15:03:56;9.80;;;4.00;;
24439;SDS011;12618;54.386;18.394;2023-04-25T15:06:31;12.20;;;3.90;;
24439;SDS011;12618;54.386;18.394;2023-04-25T15:09:05;12.00;;;3.80;;
24439;SDS011;12618;54.386;18.394;2023-04-25T15:11:39;12.90;;;4.10;;
24439;SDS011;12618;54.386;18.394;2023-04-25T15:14:16;13.70;;;3.40;;
24439;SDS011;12618;54.386;18.394;2023-04-25T15:16:50;9.70;;;3.60;;
24439;SDS011;12618;54.386;18.394;2023-04-25T15:19:26;10.60;;;3.80;;
24439;SDS011;12618;54.386;18.394;2023-04-25T15:22:00;11.90;;;4.10;;
24439;SDS011;12618;54.386;18.394;2023-04-25T15:24:34;10.80;;;4.10;;
24439;SDS011;12618;54.386;18.394;2023-04-25T15:27:12;12.00;;;4.00;;
24439;SDS011;12618;54.386;18.394;2023-04-25T15:29:45;11.00;;;3.90;;
24439;SDS011;12618;54.386;18.394;2023-04-25T15:32:18;10.10;;;4.20;;
24439;SDS011;12618;54.386;18.394;2023-04-25T15:37:25;13.50;;;4.20;;
24439;SDS011;12618;54.386;18.394;2023-04-25T15:40:08;19.10;;;4.60;;
24439;SDS011;12618;54.386;18.394;2023-04-25T15:42:45;11.10;;;4.40;;
24439;SDS011;12618;54.386;18.394;2023-04-25T15:45:23;15.40;;;4.60;;
24439;SDS011;12618;54.386;18.394;2023-04-25T15:47:57;15.10;;;5.10;;
24439;SDS011;12618;54.386;18.394;2023-04-25T15:50:31;10.90;;;4.90;;
24439;SDS011;12618;54.386;18.394;2023-04-25T15:53:04;14.30;;;7.10;;
24439;SDS011;12618;54.386;18.394;2023-04-25T15:55:39;19.80;;;7.20;;
24439;SDS011;12618;54.386;18.394;2023-04-25T15:58:13;20.50;;;8.70;;
24439;SDS011;12618;54.386;18.394;2023-04-25T16:00:46;17.90;;;6.40;;
24439;SDS011;12618;54.386;18.394;2023-04-25T16:03:22;11.70;;;5.10;;
24439;SDS011;12618;54.386;18.394;2023-04-25T16:05:56;16.10;;;5.20;;
24439;SDS011;12618;54.386;18.394;2023-04-25T16:11:07;13.50;;;5.30;;
24439;SDS011;12618;54.386;18.394;2023-04-25T16:13:40;16.90;;;5.80;;
24439;SDS011;12618;54.386;18.394;2023-04-25T16:16:16;19.60;;;11.20;;
24439;SDS011;12618;54.386;18.394;2023-04-25T16:18:59;52.40;;;38.20;;